This is the latest recevied weather packets stored in our database for station/object N4MRV-1. If no packets are shown the sender has not sent any weather packets the latest 10 day(s).
| Time | Temp. | Humidity | Pressure | Rain* | Wind** | Luminosity | Snow |
|---|---|---|---|---|---|---|---|
| 1777830317 | 14.44° C | 34% | 1017.5 hPa | 0 mm | - | 86 W/m² | - |
| 1777822217 | 13.33° C | 37% | 1018.8 hPa | 0 mm | - | 890 W/m² | - |
| 1777821317 | 12.78° C | 38% | 1018.8 hPa | 0 mm | - | 862 W/m² | - |
| 1777815017 | 9.44° C | 42% | 1018.6 hPa | 0 mm | - | 71 W/m² | - |
| 1777806936 | 5° C | 77% | 1017.9 hPa | 0 mm | - | 37 W/m² | - |
| 1777806016 | 5° C | 77% | 1017.6 hPa | 0 mm | - | 32 W/m² | - |
| 1777800636 | 7.22° C | 67% | 1016 hPa | 0 mm | - | 0 W/m² | - |
| 1777798836 | 7.78° C | 63% | 1015.8 hPa | 0 mm | - | 0 W/m² | - |
| 1777792516 | 9.44° C | 57% | 1014.9 hPa | 0 mm | - | 0 W/m² | - |
| 1777787116 | 10° C | 62% | 1014.1 hPa | 0 mm | - | 0 W/m² | - |
| 1777786235 | 10° C | 68% | 1014.2 hPa | 0 mm | - | 0 W/m² | - |
| 1777784415 | 10° C | 67% | 1014.1 hPa | 0 mm | - | 0 W/m² | - |
| 1777783515 | 10° C | 67% | 1014 hPa | 0 mm | - | 0 W/m² | - |
| 1777763715 | 14.44° C | 51% | 1011.9 hPa | 0 mm | - | 42 W/m² | - |
| 1777762815 | 14.44° C | 47% | 1011.7 hPa | 0 mm | - | 41 W/m² | - |
| 1777761015 | 15° C | 43% | 1011.6 hPa | 0 mm | - | 63 W/m² | - |
| 1777747517 | 15.56° C | 44% | 1012.8 hPa | 0 mm | - | 343 W/m² | - |
| 1777746617 | 15° C | 44% | 1013 hPa | 0 mm | - | 337 W/m² | - |
| 1777745717 | 15° C | 45% | 1013.2 hPa | 0 mm | - | 235 W/m² | - |
| 1777739417 | 12.78° C | 51% | 1014.5 hPa | 0 mm | - | 209 W/m² | - |
| 1777735816 | 12.22° C | 54% | 1015.1 hPa | 0 mm | - | 288 W/m² | - |
| 1777730416 | 11.67° C | 57% | 1014.9 hPa | 0 mm | - | 209 W/m² | - |
| 1777728616 | 11.67° C | 59% | 1014.7 hPa | 0 mm | - | 166 W/m² | - |
| 1777727736 | 11.11° C | 62% | 1014.5 hPa | 0 mm | - | 154 W/m² | - |
| 1777712416 | 9.44° C | 86% | 1013 hPa | 0 mm | - | 0 W/m² | - |
* Rain latest hour (hover to see other rain measurements)
** Current wind speed in m/s (hover to see current wind gust speed)